Aviation Digital Data Service (ADDS)

Output produced by METARs form (0614 UTC 19 March 2019)
found at http://www.aviationweather.gov/metar/data/
 
METAR text: RJAF 190600Z VRB03KT 9999 FEW060 SCT090 BKN/// 13/M01 Q1012
Conditions at: RJAF (MATSUMOTO AIRPOR, JP) observed 0600 UTC 19 March 2019
Temperature: 13.0°C (55°F)
Dewpoint: -1.0°C (30°F) [RH = 38%]
Pressure (altimeter): 29.88 inches Hg (1012.0 mb)
Winds: variable direction winds at 3 MPH (3 knots; 1.5 m/s)
Visibility: 6 or more miles (10+ km)
Ceiling: at least 12,000 feet AGL
Clouds: few clouds at 6000 feet AGL
scattered clouds at 9000 feet AGL
Weather: no significant weather observed at this time

METAR text: RJAF 190500Z 13006KT 070V170 9999 FEW060 SCT070 BKN090 13/M02 Q1013
Conditions at: RJAF (MATSUMOTO AIRPOR, JP) observed 0500 UTC 19 March 2019
Temperature: 13.0°C (55°F)
Dewpoint: -2.0°C (28°F) [RH = 35%]
Pressure (altimeter): 29.91 inches Hg (1013.0 mb)
Winds: from the SE (130 degrees) at 7 MPH (6 knots; 3.1 m/s)
Visibility: 6 or more miles (10+ km)
Ceiling: 9000 feet AGL
Clouds: few clouds at 6000 feet AGL
scattered clouds at 7000 feet AGL
broken clouds at 9000 feet AGL
Weather: no significant weather observed at this time

METAR text: RJAF 190400Z 16010KT 9999 VCSH FEW050 SCT060 BKN070 11/M03 Q1014
Conditions at: RJAF (MATSUMOTO AIRPOR, JP) observed 0400 UTC 19 March 2019
Temperature: 11.0°C (52°F)
Dewpoint: -3.0°C (27°F) [RH = 37%]
Pressure (altimeter): 29.94 inches Hg (1014.0 mb)
Winds: from the SSE (160 degrees) at 12 MPH (10 knots; 5.1 m/s)
Visibility: 6 or more miles (10+ km)
Ceiling: 7000 feet AGL
Clouds: few clouds at 5000 feet AGL
scattered clouds at 6000 feet AGL
broken clouds at 7000 feet AGL
Weather: VCSH  (showers in vicinity)

METAR text: RJAF 190300Z 15013KT 9999 VCSH FEW050 BKN060 09/M04 Q1015
Conditions at: RJAF (MATSUMOTO AIRPOR, JP) observed 0300 UTC 19 March 2019
Temperature: 9.0°C (48°F)
Dewpoint: -4.0°C (25°F) [RH = 40%]
Pressure (altimeter): 29.97 inches Hg (1015.0 mb)
Winds: from the SSE (150 degrees) at 15 MPH (13 knots; 6.7 m/s)
Visibility: 6 or more miles (10+ km)
Ceiling: 6000 feet AGL
Clouds: few clouds at 5000 feet AGL
broken clouds at 6000 feet AGL
Weather: VCSH  (showers in vicinity)

METAR text: RJAF 190200Z 15013KT 9999 FEW060 SCT070 BKN090 10/M06 Q1015
Conditions at: RJAF (MATSUMOTO AIRPOR, JP) observed 0200 UTC 19 March 2019
Temperature: 10.0°C (50°F)
Dewpoint: -6.0°C (21°F) [RH = 32%]
Pressure (altimeter): 29.97 inches Hg (1015.0 mb)
Winds: from the SSE (150 degrees) at 15 MPH (13 knots; 6.7 m/s)
Visibility: 6 or more miles (10+ km)
Ceiling: 9000 feet AGL
Clouds: few clouds at 6000 feet AGL
scattered clouds at 7000 feet AGL
broken clouds at 9000 feet AGL
Weather: no significant weather observed at this time

METAR text: RJAF 190100Z 15013KT 9999 FEW060 SCT070 BKN090 09/M05 Q1015
Conditions at: RJAF (MATSUMOTO AIRPOR, JP) observed 0100 UTC 19 March 2019
Temperature: 9.0°C (48°F)
Dewpoint: -5.0°C (23°F) [RH = 37%]
Pressure (altimeter): 29.97 inches Hg (1015.0 mb)
Winds: from the SSE (150 degrees) at 15 MPH (13 knots; 6.7 m/s)
Visibility: 6 or more miles (10+ km)
Ceiling: 9000 feet AGL
Clouds: few clouds at 6000 feet AGL
scattered clouds at 7000 feet AGL
broken clouds at 9000 feet AGL
Weather: no significant weather observed at this time

METAR text: RJAF 190000Z 15013KT 9999 FEW060 BKN080 08/M05 Q1016
Conditions at: RJAF (MATSUMOTO AIRPOR, JP) observed 0000 UTC 19 March 2019
Temperature: 8.0°C (46°F)
Dewpoint: -5.0°C (23°F) [RH = 39%]
Pressure (altimeter): 30.00 inches Hg (1016.0 mb)
Winds: from the SSE (150 degrees) at 15 MPH (13 knots; 6.7 m/s)
Visibility: 6 or more miles (10+ km)
Ceiling: 8000 feet AGL
Clouds: few clouds at 6000 feet AGL
broken clouds at 8000 feet AGL
Weather: no significant weather observed at this time

METAR text: RJAF 182330Z 15013KT 9999 FEW060 BKN090 06/M05 Q1016
Conditions at: RJAF (MATSUMOTO AIRPOR, JP) observed 2330 UTC 18 March 2019
Temperature: 6.0°C (43°F)
Dewpoint: -5.0°C (23°F) [RH = 45%]
Pressure (altimeter): 30.00 inches Hg (1016.0 mb)
Winds: from the SSE (150 degrees) at 15 MPH (13 knots; 6.7 m/s)
Visibility: 6 or more miles (10+ km)
Ceiling: 9000 feet AGL
Clouds: few clouds at 6000 feet AGL
broken clouds at 9000 feet AGL
Weather: no significant weather observed at this time

METAR text: RJAF 182310Z 15012KT 9999 FEW060 BKN100 06/M06 Q1016 RMK 1CU060 6AC100 A3003
Conditions at: RJAF (MATSUMOTO AIRPOR, JP) observed 2310 UTC 18 March 2019
Temperature: 6.0°C (43°F)
Dewpoint: -6.0°C (21°F) [RH = 42%]
Pressure (altimeter): 30.00 inches Hg (1016.0 mb)
Winds: from the SSE (150 degrees) at 14 MPH (12 knots; 6.2 m/s)
Visibility: 6 or more miles (10+ km)
Ceiling: 10000 feet AGL
Clouds: few clouds at 6000 feet AGL
broken clouds at 10000 feet AGL
Weather: no significant weather observed at this time

METAR text: RJAF 180700Z 18022KT 9999 FEW100 BKN/// 12/M13 Q1016
Conditions at: RJAF (MATSUMOTO AIRPOR, JP) observed 0700 UTC 18 March 2019
Temperature: 12.0°C (54°F)
Dewpoint: -13.0°C ( 9°F) [RH = 16%]
Pressure (altimeter): 30.00 inches Hg (1016.0 mb)
Winds: from the S (180 degrees) at 25 MPH (22 knots; 11.3 m/s)
Visibility: 6 or more miles (10+ km)
Ceiling: at least 12,000 feet AGL
Clouds: few clouds at 10000 feet AGL
Weather: no significant weather observed at this time

METAR text: RJAF 180600Z 17019KT CAVOK 13/M15 Q1016
Conditions at: RJAF (MATSUMOTO AIRPOR, JP) observed 0600 UTC 18 March 2019
Temperature: 13.0°C (55°F)
Dewpoint: -15.0°C ( 5°F) [RH = 13%]
Pressure (altimeter): 30.00 inches Hg (1016.0 mb)
Winds: from the S (170 degrees) at 22 MPH (19 knots; 9.8 m/s)
Visibility: 6 or more miles (10+ km)
Ceiling: ceiling and visibility are OK
Clouds: unknown
Weather: no significant weather observed at this time

METAR text: RJAF 180500Z 15012KT 110V180 CAVOK 14/M13 Q1017
Conditions at: RJAF (MATSUMOTO AIRPOR, JP) observed 0500 UTC 18 March 2019
Temperature: 14.0°C (57°F)
Dewpoint: -13.0°C ( 9°F) [RH = 14%]
Pressure (altimeter): 30.03 inches Hg (1017.0 mb)
Winds: from the SSE (150 degrees) at 14 MPH (12 knots; 6.2 m/s)
Visibility: 6 or more miles (10+ km)
Ceiling: ceiling and visibility are OK
Clouds: unknown
Weather: no significant weather observed at this time

METAR text: RJAF 180400Z 15011KT 100V180 CAVOK 12/M10 Q1018
Conditions at: RJAF (MATSUMOTO AIRPOR, JP) observed 0400 UTC 18 March 2019
Temperature: 12.0°C (54°F)
Dewpoint: -10.0°C (14°F) [RH = 20%]
Pressure (altimeter): 30.06 inches Hg (1018.0 mb)
Winds: from the SSE (150 degrees) at 13 MPH (11 knots; 5.7 m/s)
Visibility: 6 or more miles (10+ km)
Ceiling: ceiling and visibility are OK
Clouds: unknown
Weather: no significant weather observed at this time

METAR text: RJAF 180300Z 15012KT 110V180 CAVOK 10/M10 Q1019
Conditions at: RJAF (MATSUMOTO AIRPOR, JP) observed 0300 UTC 18 March 2019
Temperature: 10.0°C (50°F)
Dewpoint: -10.0°C (14°F) [RH = 23%]
Pressure (altimeter): 30.09 inches Hg (1019.0 mb)
Winds: from the SSE (150 degrees) at 14 MPH (12 knots; 6.2 m/s)
Visibility: 6 or more miles (10+ km)
Ceiling: ceiling and visibility are OK
Clouds: unknown
Weather: no significant weather observed at this time

METAR text: RJAF 180200Z 13011KT 100V170 9999 FEW035 09/M12 Q1020
Conditions at: RJAF (MATSUMOTO AIRPOR, JP) observed 0200 UTC 18 March 2019
Temperature: 9.0°C (48°F)
Dewpoint: -12.0°C (10°F) [RH = 21%]
Pressure (altimeter): 30.12 inches Hg (1020.0 mb)
Winds: from the SE (130 degrees) at 13 MPH (11 knots; 5.7 m/s)
Visibility: 6 or more miles (10+ km)
Ceiling: at least 12,000 feet AGL
Clouds: few clouds at 3500 feet AGL
Weather: no significant weather observed at this time

METAR text: RJAF 180100Z VRB04KT 9999 FEW025 04/M06 Q1021
Conditions at: RJAF (MATSUMOTO AIRPOR, JP) observed 0100 UTC 18 March 2019
Temperature: 4.0°C (39°F)
Dewpoint: -6.0°C (21°F) [RH = 48%]
Pressure (altimeter): 30.15 inches Hg (1021.0 mb)
Winds: variable direction winds at 5 MPH (4 knots; 2.1 m/s)
Visibility: 6 or more miles (10+ km)
Ceiling: at least 12,000 feet AGL
Clouds: few clouds at 2500 feet AGL
Weather: no significant weather observed at this time

METAR text: RJAF 180000Z 14003KT 020V180 9999 FEW020 02/M06 Q1022
Conditions at: RJAF (MATSUMOTO AIRPOR, JP) observed 0000 UTC 18 March 2019
Temperature: 2.0°C (36°F)
Dewpoint: -6.0°C (21°F) [RH = 55%]
Pressure (altimeter): 30.18 inches Hg (1022.0 mb)
Winds: from the SE (140 degrees) at 3 MPH (3 knots; 1.5 m/s)
Visibility: 6 or more miles (10+ km)
Ceiling: at least 12,000 feet AGL
Clouds: few clouds at 2000 feet AGL
Weather: no significant weather observed at this time

METAR text: RJAF 172330Z 09004KT 050V150 9999 FEW020 01/M06 Q1023
Conditions at: RJAF (MATSUMOTO AIRPOR, JP) observed 2330 UTC 17 March 2019
Temperature: 1.0°C (34°F)
Dewpoint: -6.0°C (21°F) [RH = 59%]
Pressure (altimeter): 30.21 inches Hg (1023.0 mb)
Winds: from the E (90 degrees) at 5 MPH (4 knots; 2.1 m/s)
Visibility: 6 or more miles (10+ km)
Ceiling: at least 12,000 feet AGL
Clouds: few clouds at 2000 feet AGL
Weather: no significant weather observed at this time

METAR text: RJAF 172310Z 13003KT 080V180 9999 FEW020 M00/M07 Q1023 RMK 1CU020 A3021
Conditions at: RJAF (MATSUMOTO AIRPOR, JP) observed 2310 UTC 17 March 2019
Temperature: 0.0°C (32°F)
Dewpoint: -7.0°C (19°F) [RH = 59%]
Pressure (altimeter): 30.21 inches Hg (1023.0 mb)
Winds: from the SE (130 degrees) at 3 MPH (3 knots; 1.5 m/s)
Visibility: 6 or more miles (10+ km)
Ceiling: at least 12,000 feet AGL
Clouds: few clouds at 2000 feet AGL
Weather: no significant weather observed at this time